Time;durP1;ratioP1;P1;durP2;ratioP2;P2;SDS_P1;SDS_P2;PMS_P1;PMS_P2;Temp;Humidity;BMP_temperature;BMP_pressure;BME280_temperature;BME280_humidity;BME280_pressure;Samples;Min_cycle;Max_cycle;Signal;HPM_P1;HPM_P2
2022/10/02 00:01:22;;;;;;;;;;;;;;;13.17;72.81;101111.69;5030491;28;20286;-77
2022/10/02 00:03:48;;;;;;;;;;;;;;;13.13;72.88;101117.91;5027364;28;19920;-77
2022/10/02 00:06:17;;;;;;;;;;;;;;;13.11;72.77;101117.06;5036053;28;19920;-77
2022/10/02 00:08:44;;;;;;;;;;;;;;;13.15;72.87;101110.03;5030302;28;19960;-77
2022/10/02 00:11:12;;;;;;;;;;;;;;;13.08;72.97;101111.94;5046383;28;19925;-77
2022/10/02 00:13:45;;;;;;;;;;;;;;;13.09;73.13;101120.63;5036507;28;19979;-77
2022/10/02 00:16:23;;;;;;;;;;;;;;;13.08;73.42;101113.69;5023570;28;19921;-77
2022/10/02 00:18:49;;;;;;;;;;;;;;;13.20;73.15;101121.19;5027307;28;19932;-77
2022/10/02 00:21:14;;;;;;;;;;;;;;;13.18;73.34;101116.03;5009827;28;20454;-77
2022/10/02 00:23:43;;;;;;;;;;;;;;;13.20;73.33;101121.19;5034441;28;20007;-77
2022/10/02 00:26:17;;;;;;;;;;;;;;;13.19;73.67;101125.53;5040429;28;19928;-77
2022/10/02 00:28:54;;;;;;;;;;;;;;;13.21;73.34;101123.78;5028359;28;20040;-77
2022/10/02 00:31:32;;;;;;;;;;;;;;;13.25;73.15;101121.94;5029995;28;20008;-77
2022/10/02 00:34:20;;;;;;;;;;;;;;;13.29;72.96;101113.13;5026708;28;19975;-77
2022/10/02 00:36:54;;;;;;;;;;;;;;;13.28;73.42;101118.41;5029109;28;19932;-77
2022/10/02 00:39:19;;;;;;;;;;;;;;;13.31;73.26;101123.53;5029666;28;20338;-77
2022/10/02 00:41:55;;;;;;;;;;;;;;;13.25;73.27;101121.09;5029070;28;20007;-77
2022/10/02 00:44:50;;;;;;;;;;;;;;;13.22;74.08;101127.25;5030783;28;19921;-77
2022/10/02 00:47:18;;;;;;;;;;;;;;;13.29;73.39;101133.13;5023154;28;19924;-77
2022/10/02 00:49:46;;;;;;;;;;;;;;;13.33;73.32;101119.13;5031993;28;20455;-77
2022/10/02 00:52:30;;;;;;;;;;;;;;;13.32;73.66;101133.06;5034113;28;19921;-77
2022/10/02 00:54:55;;;;;;;;;;;;;;;13.35;73.67;101132.97;5026067;28;19970;-77
2022/10/02 00:57:59;;;;;;;;;;;;;;;13.37;73.11;101126.84;5036281;28;20008;-77
2022/10/02 01:00:25;;;;;;;;;;;;;;;13.36;73.61;101140.78;5005295;28;19933;-77
2022/10/02 01:03:02;;;;;;;;;;;;;;;13.40;73.64;101136.34;5006554;28;19975;-77
2022/10/02 01:05:27;;;;;;;;;;;;;;;13.39;73.55;101125.03;5017431;28;19928;-77
2022/10/02 01:07:54;;;;;;;;;;;;;;;13.37;73.73;101139.03;5029385;28;19921;-77
2022/10/02 01:10:21;;;;;;;;;;;;;;;13.32;74.29;101131.31;5028256;28;19960;-77
2022/10/02 01:12:47;;;;;;;;;;;;;;;13.35;74.00;101138.19;5029136;28;20317;-77
2022/10/02 01:15:17;;;;;;;;;;;;;;;13.37;73.76;101129.44;5031862;28;19925;-77
2022/10/02 01:17:43;;;;;;;;;;;;;;;13.41;73.56;101131.06;5027679;28;19925;-77
2022/10/02 01:20:13;;;;;;;;;;;;;;;13.40;73.56;101142.41;5024121;28;19929;-77
2022/10/02 01:22:48;;;;;;;;;;;;;;;13.42;73.88;101131.91;5026101;28;20035;-77
2022/10/02 01:25:13;;;;;;;;;;;;;;;13.37;74.41;101139.03;5027270;28;19929;-77
2022/10/02 01:27:38;;;;;;;;;;;;;;;13.41;74.21;101131.06;5032088;28;19921;-77
2022/10/02 01:30:08;;;;;;;;;;;;;;;13.43;74.29;101134.50;5027023;28;19929;-77
2022/10/02 01:32:35;;;;;;;;;;;;;;;13.42;74.80;101139.75;5048728;28;20054;-77
2022/10/02 01:35:01;;;;;;;;;;;;;;;13.42;74.64;101144.97;5036426;28;20382;-77
2022/10/02 01:37:28;;;;;;;;;;;;;;;13.46;74.66;101142.22;5028848;28;19924;-77
2022/10/02 01:39:55;;;;;;;;;;;;;;;13.46;74.67;101144.84;5032948;28;19933;-77
2022/10/02 01:42:20;;;;;;;;;;;;;;;13.42;75.22;101147.56;5026764;28;19929;-77
2022/10/02 01:44:46;;;;;;;;;;;;;;;13.46;74.83;101150.06;5027929;28;19923;-77
2022/10/02 01:47:18;;;;;;;;;;;;;;;13.45;74.87;101150.97;5022874;28;19922;-77
2022/10/02 01:49:44;;;;;;;;;;;;;;;13.44;74.85;101145.78;5026812;28;19921;-77
2022/10/02 01:52:09;;;;;;;;;;;;;;;13.41;75.02;101144.09;5030774;28;20396;-77
2022/10/02 01:54:37;;;;;;;;;;;;;;;13.48;75.00;101148.28;5043639;28;20409;-77
2022/10/02 01:57:09;;;;;;;;;;;;;;;13.46;74.75;101149.22;5034623;28;19971;-76
2022/10/02 01:59:34;;;;;;;;;;;;;;;13.53;74.53;101148.13;5041420;28;19948;-77
2022/10/02 02:02:23;;;;;;;;;;;;;;;13.42;74.88;101152.78;5030302;28;19925;-77
2022/10/02 02:04:54;;;;;;;;;;;;;;;13.44;74.90;101154.47;5027046;28;19968;-77
2022/10/02 02:07:34;;;;;;;;;;;;;;;13.47;74.94;101151.78;5032738;28;19929;-77
2022/10/02 02:10:18;;;;;;;;;;;;;;;13.45;74.92;101148.34;5032947;28;19956;-77
2022/10/02 02:12:52;;;;;;;;;;;;;;;13.53;74.57;101142.91;5029111;28;19978;-77
2022/10/02 02:15:21;;;;;;;;;;;;;;;13.52;74.74;101156.88;5031631;28;20614;-77
2022/10/02 02:17:47;;;;;;;;;;;;;;;13.41;74.91;101156.28;5035940;28;20055;-77
2022/10/02 02:20:21;;;;;;;;;;;;;;;13.48;74.63;101148.28;5032311;28;19929;-77
2022/10/02 02:22:48;;;;;;;;;;;;;;;13.48;74.74;101150.88;5028940;28;19921;-77
2022/10/02 02:25:40;;;;;;;;;;;;;;;13.43;74.84;101157.13;5040079;28;19917;-77
2022/10/02 02:28:07;;;;;;;;;;;;;;;13.43;75.14;101154.53;5026137;28;19971;-77
2022/10/02 02:30:35;;;;;;;;;;;;;;;13.46;74.94;101144.00;5034467;28;19979;-77
2022/10/02 02:33:06;;;;;;;;;;;;;;;13.48;74.44;101131.75;5032804;28;20313;-77
2022/10/02 02:35:42;;;;;;;;;;;;;;;13.46;74.67;101137.00;5031938;28;19917;-77
2022/10/02 02:38:13;;;;;;;;;;;;;;;13.46;74.74;101141.38;5030987;28;19921;-77
2022/10/02 02:40:42;;;;;;;;;;;;;;;13.43;75.00;101142.34;5034676;28;19925;-77
2022/10/02 02:43:14;;;;;;;;;;;;;;;13.42;75.01;101135.41;5032195;28;19921;-77
2022/10/02 02:45:44;;;;;;;;;;;;;;;13.44;75.05;101137.94;5036817;28;19925;-77
2022/10/02 02:48:14;;;;;;;;;;;;;;;13.44;74.66;101135.34;5027272;28;19940;-77
2022/10/02 02:50:43;;;;;;;;;;;;;;;13.44;74.90;101127.50;5028578;28;19921;-77
2022/10/02 02:53:08;;;;;;;;;;;;;;;13.44;74.75;101124.91;5032856;28;20082;-77
2022/10/02 02:55:36;;;;;;;;;;;;;;;13.42;75.31;101142.34;5035112;28;20028;-77
2022/10/02 02:58:11;;;;;;;;;;;;;;;13.46;74.61;101144.00;5032516;28;20063;-77
2022/10/02 03:00:37;;;;;;;;;;;;;;;13.43;75.08;101137.13;5034115;28;19925;-77
2022/10/02 03:03:03;;;;;;;;;;;;;;;13.47;74.52;101137.88;5030034;28;19925;-76
2022/10/02 03:05:28;;;;;;;;;;;;;;;13.48;74.62;101142.19;5029481;28;20009;-77
2022/10/02 03:07:55;;;;;;;;;;;;;;;13.52;74.40;101139.44;5033577;28;19929;-77
2022/10/02 03:10:29;;;;;;;;;;;;;;;13.54;74.27;101142.03;5029475;28;19928;-77
2022/10/02 03:12:58;;;;;;;;;;;;;;;13.58;74.74;101138.44;5030264;28;19921;-77
2022/10/02 03:15:26;;;;;;;;;;;;;;;13.55;75.22;101135.94;5030234;28;19927;-77
2022/10/02 03:17:51;;;;;;;;;;;;;;;13.53;76.09;101140.31;5027140;28;20389;-77
2022/10/02 03:20:29;;;;;;;;;;;;;;;13.53;76.29;101138.56;5029221;28;19939;-77
2022/10/02 03:23:07;;;;;;;;;;;;;;;13.47;76.72;101136.13;5026748;28;19925;-77
2022/10/02 03:25:47;;;;;;;;;;;;;;;13.54;77.21;101142.03;5041750;28;19932;-77
2022/10/02 03:28:12;;;;;;;;;;;;;;;13.49;77.75;101143.91;5048534;28;19925;-77
2022/10/02 03:30:38;;;;;;;;;;;;;;;13.43;78.17;101144.94;5049775;28;19925;-77
2022/10/02 03:33:04;;;;;;;;;;;;;;;13.52;78.13;101146.44;5047105;28;19913;-76
2022/10/02 03:35:30;;;;;;;;;;;;;;;13.50;78.55;101146.47;5047873;28;20419;-77
2022/10/02 03:37:59;;;;;;;;;;;;;;;13.49;78.75;101147.34;5051870;28;19925;-77
2022/10/02 03:40:25;;;;;;;;;;;;;;;13.52;78.81;101142.06;5056547;28;19931;-76
2022/10/02 03:42:50;;;;;;;;;;;;;;;13.50;78.72;101145.59;5053005;28;19921;-77
2022/10/02 03:45:16;;;;;;;;;;;;;;;13.48;78.67;101145.66;5047676;28;19949;-77
2022/10/02 03:47:41;;;;;;;;;;;;;;;13.42;78.85;101140.59;5031763;28;19950;-77
2022/10/02 03:50:07;;;;;;;;;;;;;;;13.41;79.12;101140.63;5051786;28;19928;-77
2022/10/02 03:52:33;;;;;;;;;;;;;;;13.41;78.80;101144.09;5049458;28;19928;-77
2022/10/02 03:55:01;;;;;;;;;;;;;;;13.40;78.75;101150.25;5050359;28;19982;-77
2022/10/02 03:57:28;;;;;;;;;;;;;;;13.44;78.83;101145.78;5048625;28;20303;-77
2022/10/02 04:00:04;;;;;;;;;;;;;;;13.42;78.79;101148.44;5050153;28;19921;-77
2022/10/02 04:02:38;;;;;;;;;;;;;;;13.44;78.70;101146.63;5049500;28;19917;-78
2022/10/02 04:05:22;;;;;;;;;;;;;;;13.42;78.73;101144.97;5048653;28;19974;-77
2022/10/02 04:07:51;;;;;;;;;;;;;;;13.40;78.71;101147.63;5054224;28;19959;-77
2022/10/02 04:10:35;;;;;;;;;;;;;;;13.40;79.06;101152.84;5054051;28;19928;-77
2022/10/02 04:13:13;;;;;;;;;;;;;;;13.40;79.03;101134.59;5051118;28;19924;-77
2022/10/02 04:15:47;;;;;;;;;;;;;;;13.39;78.97;101135.47;5049131;28;19924;-77
2022/10/02 04:18:36;;;;;;;;;;;;;;;13.41;78.75;101133.66;5028706;28;20526;-77
2022/10/02 04:21:08;;;;;;;;;;;;;;;13.38;78.97;101141.56;5040603;28;19927;-76
2022/10/02 04:23:36;;;;;;;;;;;;;;;13.39;78.81;101148.53;5058920;28;19913;-77
2022/10/02 04:26:22;;;;;;;;;;;;;;;13.38;79.25;101154.63;5056264;28;20389;-77
2022/10/02 04:28:51;;;;;;;;;;;;;;;13.40;78.69;101147.63;5046926;28;20090;-77
2022/10/02 04:31:16;;;;;;;;;;;;;;;13.37;78.99;101157.28;5056061;28;19962;-78
2022/10/02 04:33:41;;;;;;;;;;;;;;;13.36;79.08;101153.81;5048638;28;19944;-77
2022/10/02 04:36:16;;;;;;;;;;;;;;;13.34;79.25;101146.94;5049422;28;19923;-77
2022/10/02 04:38:41;;;;;;;;;;;;;;;13.34;79.09;101153.00;5048521;28;19913;-77
2022/10/02 04:41:18;;;;;;;;;;;;;;;13.31;79.39;101155.69;5051200;28;20004;-77
2022/10/02 04:43:43;;;;;;;;;;;;;;;13.31;79.29;101162.66;5049648;28;20566;-78
2022/10/02 04:46:40;;;;;;;;;;;;;;;13.36;79.24;101164.25;5058432;28;19917;-78
2022/10/02 04:49:25;;;;;;;;;;;;;;;13.41;79.42;101164.97;5054334;28;19920;-77
2022/10/02 04:51:56;;;;;;;;;;;;;;;13.40;79.30;101171.13;5047656;28;19921;-77
2022/10/02 04:54:28;;;;;;;;;;;;;;;13.38;79.52;101175.50;5054433;28;19985;-77
2022/10/02 04:57:12;;;;;;;;;;;;;;;13.36;79.46;101166.88;5049951;28;20019;-77
2022/10/02 04:59:55;;;;;;;;;;;;;;;13.35;79.97;101165.13;5048041;28;19928;-77
2022/10/02 05:02:32;;;;;;;;;;;;;;;13.34;80.01;101173.88;5051993;28;19924;-77
2022/10/02 05:04:58;;;;;;;;;;;;;;;13.34;80.12;101165.19;5054223;28;19927;-78
2022/10/02 05:07:23;;;;;;;;;;;;;;;13.36;79.94;101171.22;5051001;28;19936;-76
2022/10/02 05:10:00;;;;;;;;;;;;;;;13.27;80.54;101172.31;5050579;28;19981;-77
2022/10/02 05:12:26;;;;;;;;;;;;;;;13.32;80.35;101173.03;5045515;28;20389;-77
2022/10/02 05:14:54;;;;;;;;;;;;;;;13.29;80.24;101173.13;5051604;28;19908;-77
2022/10/02 05:17:38;;;;;;;;;;;;;;;13.29;80.21;101172.25;5047369;28;20278;-78
2022/10/02 05:20:24;;;;;;;;;;;;;;;13.34;79.96;101173.88;5045947;28;19971;-77
2022/10/02 05:23:00;;;;;;;;;;;;;;;13.36;79.84;101172.09;5046147;28;20390;-78
2022/10/02 05:25:28;;;;;;;;;;;;;;;13.39;79.73;101174.63;5043798;28;19925;-77
2022/10/02 05:28:02;;;;;;;;;;;;;;;13.39;79.66;101172.00;5053948;28;20553;-77
2022/10/02 05:30:35;;;;;;;;;;;;;;;13.39;79.48;101172.00;5046198;28;20016;-77
2022/10/02 05:33:03;;;;;;;;;;;;;;;13.37;79.71;101184.25;5047956;28;19956;-77
2022/10/02 05:35:39;;;;;;;;;;;;;;;13.36;79.68;101182.53;5030908;28;19972;-77
2022/10/02 05:38:05;;;;;;;;;;;;;;;13.33;79.92;101177.38;5047886;28;19967;-78
2022/10/02 05:40:35;;;;;;;;;;;;;;;13.33;79.97;101179.13;5047761;28;19925;-77
2022/10/02 05:43:07;;;;;;;;;;;;;;;13.36;79.73;101184.28;5047407;28;20355;-77
2022/10/02 05:45:36;;;;;;;;;;;;;;;13.34;79.94;101184.31;5047692;28;19916;-77
2022/10/02 05:48:22;;;;;;;;;;;;;;;13.39;79.59;101187.66;5035440;28;19978;-75
2022/10/02 05:50:51;;;;;;;;;;;;;;;13.36;79.82;101190.34;5045673;28;19932;-77
2022/10/02 05:53:22;;;;;;;;;;;;;;;13.34;79.96;101194.75;5046189;28;19936;-77
2022/10/02 05:55:51;;;;;;;;;;;;;;;13.34;80.08;101196.50;5047338;28;20416;-78
2022/10/02 05:58:27;;;;;;;;;;;;;;;13.40;79.80;101191.13;5050161;28;19942;-77
2022/10/02 06:00:55;;;;;;;;;;;;;;;13.36;80.10;101192.09;5047435;28;19928;-78
2022/10/02 06:03:23;;;;;;;;;;;;;;;13.31;80.25;101184.41;5044180;28;19924;-78
2022/10/02 06:06:01;;;;;;;;;;;;;;;13.31;80.33;101178.31;5047040;28;20361;-78
2022/10/02 06:08:31;;;;;;;;;;;;;;;13.36;80.12;101189.50;5042069;28;19924;-77
2022/10/02 06:10:59;;;;;;;;;;;;;;;13.31;80.51;101188.75;5045812;28;20004;-77
2022/10/02 06:13:34;;;;;;;;;;;;;;;13.28;80.61;101197.53;5046193;28;19917;-77
2022/10/02 06:15:59;;;;;;;;;;;;;;;13.31;80.64;101197.44;5046183;28;19916;-78
2022/10/02 06:18:28;;;;;;;;;;;;;;;13.32;80.56;101196.53;5045818;28;20003;-78
2022/10/02 06:21:09;;;;;;;;;;;;;;;13.38;80.60;101206.81;5044835;28;19929;-78
2022/10/02 06:23:37;;;;;;;;;;;;;;;13.34;80.78;101214.78;5046220;28;19932;-79
2022/10/02 06:26:05;;;;;;;;;;;;;;;13.39;80.81;101210.28;5033549;28;20008;-78
2022/10/02 06:28:39;;;;;;;;;;;;;;;13.42;80.78;101212.81;5058670;28;19920;-77
2022/10/02 06:31:16;;;;;;;;;;;;;;;13.44;80.86;101216.25;5051170;28;19921;-78
2022/10/02 06:33:41;;;;;;;;;;;;;;;13.45;80.61;101211.00;5047901;28;19943;-78
2022/10/02 06:36:23;;;;;;;;;;;;;;;13.42;80.80;101218.03;5044262;28;19917;-78
2022/10/02 06:39:03;;;;;;;;;;;;;;;13.42;80.91;101220.66;5048531;28;20316;-78
2022/10/02 06:41:53;;;;;;;;;;;;;;;13.43;80.88;101222.38;5054071;28;19924;-78
2022/10/02 06:44:37;;;;;;;;;;;;;;;13.45;80.63;101231.88;5041096;28;20309;-78
2022/10/02 06:47:21;;;;;;;;;;;;;;;13.46;80.67;101235.34;5051649;28;19920;-78
2022/10/02 06:50:05;;;;;;;;;;;;;;;13.49;80.41;101243.94;5049017;28;19928;-78
2022/10/02 06:52:48;;;;;;;;;;;;;;;13.49;80.64;101243.09;5044882;28;20361;-78
2022/10/02 06:55:19;;;;;;;;;;;;;;;13.47;80.95;101242.25;5050936;28;19921;-78
2022/10/02 06:57:47;;;;;;;;;;;;;;;13.43;80.85;101245.84;5047176;28;19921;-78
2022/10/02 07:00:15;;;;;;;;;;;;;;;13.43;80.58;101249.34;5045819;28;19928;-78
2022/10/02 07:02:43;;;;;;;;;;;;;;;13.52;80.63;101251.69;5043824;28;19970;-78
2022/10/02 07:05:08;;;;;;;;;;;;;;;13.47;80.91;101253.56;5048095;28;19924;-78
2022/10/02 07:07:36;;;;;;;;;;;;;;;13.50;80.69;101255.22;5050034;28;20558;-78
2022/10/02 07:10:28;;;;;;;;;;;;;;;13.52;80.78;101245.63;5044916;28;19931;-78
2022/10/02 07:13:02;;;;;;;;;;;;;;;13.50;81.03;101250.00;5046527;28;20489;-77
2022/10/02 07:15:27;;;;;;;;;;;;;;;13.53;80.81;101262.97;5060134;28;19982;-78
2022/10/02 07:18:08;;;;;;;;;;;;;;;13.48;81.24;101257.91;5050562;28;19917;-77
2022/10/02 07:20:36;;;;;;;;;;;;;;;13.51;80.86;101263.03;5049553;28;19920;-78
2022/10/02 07:23:08;;;;;;;;;;;;;;;13.47;81.28;101252.69;5057269;28;19966;-78
2022/10/02 07:25:43;;;;;;;;;;;;;;;13.50;80.90;101260.44;5051756;28;20429;-78
2022/10/02 07:28:14;;;;;;;;;;;;;;;13.51;81.37;101270.88;5051552;28;19928;-78
2022/10/02 07:30:58;;;;;;;;;;;;;;;13.57;80.71;101262.88;5056300;28;20401;-78
2022/10/02 07:33:42;;;;;;;;;;;;;;;13.57;81.07;101268.09;5049522;28;19929;-78
2022/10/02 07:36:24;;;;;;;;;;;;;;;13.60;80.75;101267.16;5052378;28;19912;-78
2022/10/02 07:38:58;;;;;;;;;;;;;;;13.56;81.03;101271.59;5052792;28;20498;-78
2022/10/02 07:41:32;;;;;;;;;;;;;;;13.59;81.22;101266.31;5050436;28;19956;-78
2022/10/02 07:44:03;;;;;;;;;;;;;;;13.61;81.46;101268.88;5048516;28;19948;-78
2022/10/02 07:46:38;;;;;;;;;;;;;;;13.65;81.24;101268.75;5059136;28;19917;-78
2022/10/02 07:49:06;;;;;;;;;;;;;;;13.64;81.38;101269.63;5046403;28;19921;-78
2022/10/02 07:51:48;;;;;;;;;;;;;;;13.69;81.16;101269.56;5049360;28;20051;-78
2022/10/02 07:54:32;;;;;;;;;;;;;;;13.74;81.07;101280.75;5051929;28;19924;-78
2022/10/02 07:57:02;;;;;;;;;;;;;;;13.69;80.43;101283.50;5038114;28;19920;-78
2022/10/02 07:59:30;;;;;;;;;;;;;;;13.68;81.10;101283.50;5051432;28;19924;-78
2022/10/02 08:01:56;;;;;;;;;;;;;;;13.72;80.37;101298.22;5049846;28;19933;-77
2022/10/02 08:04:28;;;;;;;;;;;;;;;13.75;80.57;101301.63;5052375;28;20016;-78
2022/10/02 08:07:00;;;;;;;;;;;;;;;13.75;80.54;101299.00;5050878;28;20225;-77
2022/10/02 08:09:51;;;;;;;;;;;;;;;13.71;81.09;101297.34;5054556;28;19927;-77
2022/10/02 08:12:19;;;;;;;;;;;;;;;13.76;79.87;101289.38;5044463;28;20012;-77
2022/10/02 08:14:45;;;;;;;;;;;;;;;13.72;80.19;101306.06;5046279;28;19924;-77
2022/10/02 08:17:31;;;;;;;;;;;;;;;13.74;80.50;101307.72;5049952;28;19917;-78
2022/10/02 08:20:26;;;;;;;;;;;;;;;13.77;79.26;101304.16;5056646;28;20408;-78
2022/10/02 08:23:01;;;;;;;;;;;;;;;13.76;79.29;101305.91;5022871;28;20067;-77
2022/10/02 08:25:33;;;;;;;;;;;;;;;13.81;78.29;101300.59;5046749;28;19928;-77
2022/10/02 08:28:09;;;;;;;;;;;;;;;13.82;78.51;101309.28;5047014;28;19921;-77
2022/10/02 08:30:35;;;;;;;;;;;;;;;13.82;78.94;101304.91;5048327;28;19921;-77
2022/10/02 08:33:01;;;;;;;;;;;;;;;13.79;79.17;101304.97;5048507;28;20427;-77
2022/10/02 08:35:40;;;;;;;;;;;;;;;13.79;78.55;101306.75;5047050;28;19921;-77
2022/10/02 08:38:25;;;;;;;;;;;;;;;13.80;78.37;101308.44;5045160;28;19981;-77
2022/10/02 08:41:12;;;;;;;;;;;;;;;13.79;79.97;101311.97;5052708;28;19924;-77
2022/10/02 08:43:48;;;;;;;;;;;;;;;13.76;79.57;101311.13;5047579;28;20335;-78
2022/10/02 08:46:23;;;;;;;;;;;;;;;13.80;77.89;101309.31;5047524;28;19925;-78
2022/10/02 08:48:53;;;;;;;;;;;;;;;13.83;78.13;101311.84;5047318;28;19921;-77
2022/10/02 08:51:34;;;;;;;;;;;;;;;13.87;78.83;101300.44;5053644;28;20405;-77
2022/10/02 08:54:14;;;;;;;;;;;;;;;13.86;79.13;101295.22;5060307;28;19919;-78
2022/10/02 08:56:58;;;;;;;;;;;;;;;13.86;79.64;101297.84;5047696;28;19934;-78
2022/10/02 08:59:26;;;;;;;;;;;;;;;13.85;79.69;101296.97;5048938;28;19916;-77
2022/10/02 09:02:10;;;;;;;;;;;;;;;13.92;79.98;101302.91;5037830;28;19943;-78
2022/10/02 09:05:03;;;;;;;;;;;;;;;13.93;78.75;101307.25;5047208;28;19994;-77
2022/10/02 09:07:47;;;;;;;;;;;;;;;13.99;77.91;101312.31;5046865;28;19921;-77
2022/10/02 09:10:31;;;;;;;;;;;;;;;14.00;77.87;101307.03;5048970;28;20562;-77
2022/10/02 09:12:59;;;;;;;;;;;;;;;14.03;78.47;101306.09;5048165;28;20374;-77
2022/10/02 09:15:24;;;;;;;;;;;;;;;13.98;77.04;101303.63;5045553;28;19917;-77
2022/10/02 09:17:59;;;;;;;;;;;;;;;14.01;76.42;101313.13;5049398;28;19970;-77
2022/10/02 09:20:30;;;;;;;;;;;;;;;13.89;75.02;101316.91;5049887;28;20003;-78
2022/10/02 09:23:31;;;;;;;;;;;;;;;13.94;74.18;101312.41;5049513;28;19924;-78
2022/10/02 09:26:22;;;;;;;;;;;;;;;14.02;72.95;101312.22;4996840;28;19925;-78
2022/10/02 09:29:06;;;;;;;;;;;;;;;14.04;75.13;101324.34;5045700;28;19923;-78
2022/10/02 09:31:43;;;;;;;;;;;;;;;14.08;74.04;101314.69;5064358;28;19956;-74
2022/10/02 09:34:11;;;;;;;;;;;;;;;14.09;74.20;101312.00;5046868;28;19944;-74
2022/10/02 09:36:37;;;;;;;;;;;;;;;14.06;73.95;101314.72;5047791;28;20468;-74
2022/10/02 09:39:08;;;;;;;;;;;;;;;14.12;74.04;101311.94;5048313;28;19960;-75
2022/10/02 09:41:48;;;;;;;;;;;;;;;14.12;73.92;101308.47;5051670;28;19920;-73
2022/10/02 09:44:29;;;;;;;;;;;;;;;14.15;74.11;101314.47;5048191;28;19917;-74
2022/10/02 09:46:57;;;;;;;;;;;;;;;14.09;72.13;101313.75;5054079;28;20058;-73
2022/10/02 09:49:41;;;;;;;;;;;;;;;14.10;73.98;101320.72;5044531;28;20086;-74
2022/10/02 09:52:21;;;;;;;;;;;;;;;14.14;72.29;101319.75;5029124;28;20012;-74
2022/10/02 09:55:05;;;;;;;;;;;;;;;14.17;72.15;101317.06;5049488;28;19986;-73
2022/10/02 09:57:49;;;;;;;;;;;;;;;14.30;72.25;101321.03;5042107;28;19923;-73
2022/10/02 10:00:17;;;;;;;;;;;;;;;14.33;71.77;101318.34;5048201;28;19925;-74
2022/10/02 10:02:45;;;;;;;;;;;;;;;14.35;71.81;101329.63;5047115;28;19927;-74
2022/10/02 10:05:32;;;;;;;;;;;;;;;14.31;71.89;101330.59;5043566;28;19921;-73
2022/10/02 10:08:09;;;;;;;;;;;;;;;14.25;71.55;101335.97;5043174;28;19917;-73
2022/10/02 10:10:50;;;;;;;;;;;;;;;14.27;72.86;101331.56;5047061;28;20297;-73
2022/10/02 10:13:19;;;;;;;;;;;;;;;14.31;73.30;101325.38;5050578;28;20301;-73
2022/10/02 10:15:51;;;;;;;;;;;;;;;14.37;72.61;101326.94;5059711;28;19916;-73
2022/10/02 10:18:25;;;;;;;;;;;;;;;14.42;72.29;101331.16;5041447;28;20503;-74
2022/10/02 10:21:06;;;;;;;;;;;;;;;14.41;71.57;101337.28;5051084;28;20346;-74
2022/10/02 10:23:41;;;;;;;;;;;;;;;14.22;71.80;101331.69;5056826;28;19924;-74
2022/10/02 10:26:16;;;;;;;;;;;;;;;14.38;73.43;101334.75;5049622;28;20304;-74
2022/10/02 10:29:03;;;;;;;;;;;;;;;14.39;71.64;101338.22;5054858;28;20286;-73
2022/10/02 10:31:38;;;;;;;;;;;;;;;14.40;71.15;101339.94;5050870;28;19927;-74
2022/10/02 10:34:25;;;;;;;;;;;;;;;14.43;72.10;101340.72;5050691;28;19974;-74
2022/10/02 10:39:54;;;;;;;;;;;;;;;14.41;71.21;101342.53;5050898;28;20050;-73
2022/10/02 10:42:52;;;;;;;;;;;;;;;14.42;72.12;101343.34;5053146;28;19912;-74
2022/10/02 10:45:21;;;;;;;;;;;;;;;14.40;72.13;101348.63;5012854;28;20313;-74
2022/10/02 10:47:49;;;;;;;;;;;;;;;14.38;71.76;101368.75;5042135;28;19919;-73
2022/10/02 10:50:37;;;;;;;;;;;;;;;14.39;71.37;101359.97;5053818;28;19971;-74
2022/10/02 10:53:09;;;;;;;;;;;;;;;14.26;71.41;101364.66;5035289;28;19932;-74
2022/10/02 10:55:57;;;;;;;;;;;;;;;14.28;72.04;101370.75;5038999;28;19934;-73
2022/10/02 10:58:38;;;;;;;;;;;;;;;14.31;73.36;101370.66;5044410;28;19920;-74
2022/10/02 11:01:03;;;;;;;;;;;;;;;14.30;71.91;101361.09;5050875;28;19925;-73
2022/10/02 11:03:44;;;;;;;;;;;;;;;14.40;72.84;101371.28;5029647;28;19949;-74
2022/10/02 11:06:15;;;;;;;;;;;;;;;14.41;72.50;101359.97;5033714;28;20437;-74
2022/10/02 11:08:49;;;;;;;;;;;;;;;14.39;72.39;101359.13;5044709;28;19913;-74
2022/10/02 11:11:26;;;;;;;;;;;;;;;14.41;72.11;101371.28;5031518;28;20428;-74
2022/10/02 11:14:04;;;;;;;;;;;;;;;14.50;72.03;101378.00;5034111;28;19917;-73
2022/10/02 11:16:32;;;;;;;;;;;;;;;14.54;72.56;101377.88;5030931;28;20016;-73
2022/10/02 11:19:03;;;;;;;;;;;;;;;14.49;73.16;101387.59;5029682;28;19921;-73
2022/10/02 11:21:32;;;;;;;;;;;;;;;14.53;71.85;101386.59;5035512;28;19971;-74
2022/10/02 11:23:57;;;;;;;;;;;;;;;14.57;72.60;101390.00;5053832;28;19913;-73
2022/10/02 11:26:38;;;;;;;;;;;;;;;14.65;72.86;101398.50;5029936;28;19947;-74
2022/10/02 11:29:04;;;;;;;;;;;;;;;14.57;71.80;101397.84;5055553;28;19951;-73
2022/10/02 11:31:29;;;;;;;;;;;;;;;14.63;72.65;101405.50;5058532;28;19974;-74
2022/10/02 11:34:10;;;;;;;;;;;;;;;14.70;72.29;101405.31;5053147;28;19917;-73
2022/10/02 11:36:41;;;;;;;;;;;;;;;14.75;71.60;101402.59;5049119;28;19932;-74
2022/10/02 11:39:29;;;;;;;;;;;;;;;14.67;71.72;101408.00;5056977;28;19956;-74
2022/10/02 11:41:55;;;;;;;;;;;;;;;14.77;71.63;101408.63;5041322;28;19929;-74
2022/10/02 11:44:46;;;;;;;;;;;;;;;14.78;71.62;101413.81;5053777;28;20266;-74
2022/10/02 11:47:12;;;;;;;;;;;;;;;14.67;71.00;101408.00;5015278;28;19921;-74
2022/10/02 11:50:00;;;;;;;;;;;;;;;14.57;70.52;101406.53;5029426;28;19943;-74
2022/10/02 11:52:26;;;;;;;;;;;;;;;14.73;70.69;101406.97;5028403;28;19921;-74
2022/10/02 11:55:03;;;;;;;;;;;;;;;14.74;70.60;101413.94;5028432;28;19994;-73
2022/10/02 11:57:33;;;;;;;;;;;;;;;14.75;70.24;101405.19;5027480;28;19928;-74
2022/10/02 12:00:17;;;;;;;;;;;;;;;14.78;71.12;101400.75;5035972;28;19917;-74
2022/10/02 12:02:51;;;;;;;;;;;;;;;14.81;70.53;101398.06;5048159;28;19927;-73
2022/10/02 12:05:17;;;;;;;;;;;;;;;14.80;70.49;101398.94;5049413;28;19963;-74
2022/10/02 12:07:45;;;;;;;;;;;;;;;14.72;69.27;101398.28;5049840;28;20014;-73
2022/10/02 12:10:19;;;;;;;;;;;;;;;14.81;69.45;101400.66;5050139;28;20309;-73
2022/10/02 12:13:03;;;;;;;;;;;;;;;14.78;69.22;101395.53;5048657;28;19917;-73
2022/10/02 12:15:47;;;;;;;;;;;;;;;14.82;69.87;101402.38;5057625;28;20469;-74
2022/10/02 12:18:18;;;;;;;;;;;;;;;14.89;69.57;101399.59;5059147;28;19938;-73
2022/10/02 12:26:57;;;;;;;;;;;;;;;14.84;69.22;101403.19;5051532;28;19970;-78
2022/10/02 12:29:24;;;;;;;;;;;;;;;14.86;70.34;101406.63;5058234;28;19971;-78
2022/10/02 12:32:08;;;;;;;;;;;;;;;14.86;70.86;101396.16;5055924;28;19978;-78
2022/10/02 12:34:43;;;;;;;;;;;;;;;14.74;70.50;101393.88;5031113;28;20476;-77
2022/10/02 12:37:16;;;;;;;;;;;;;;;14.83;70.19;101401.47;5027850;28;19925;-77
2022/10/02 12:39:42;;;;;;;;;;;;;;;14.81;70.01;101399.81;5032910;28;19951;-77
2022/10/02 12:42:07;;;;;;;;;;;;;;;14.83;71.12;101393.63;5033620;28;19960;-77
2022/10/02 12:44:52;;;;;;;;;;;;;;;14.78;69.31;101392.03;5037080;28;19929;-77
2022/10/02 12:47:20;;;;;;;;;;;;;;;14.69;69.91;101405.34;5036350;28;20402;-77
2022/10/02 12:49:46;;;;;;;;;;;;;;;14.74;69.59;101401.72;5034896;28;19924;-77
2022/10/02 12:52:28;;;;;;;;;;;;;;;14.87;70.17;101408.34;5042532;28;20000;-77
2022/10/02 12:55:01;;;;;;;;;;;;;;;14.87;70.62;101410.94;5043861;28;19956;-77
2022/10/02 13:00:43;;;;;;;;;;;;;;;14.86;70.44;101408.38;5030479;28;19928;-77
2022/10/02 13:03:26;;;;;;;;;;;;;;;14.87;69.59;101403.09;5000392;28;20389;-78
2022/10/02 13:05:52;;;;;;;;;;;;;;;14.86;69.44;101401.38;5023628;28;20378;-77
2022/10/02 13:08:36;;;;;;;;;;;;;;;14.89;69.73;101396.97;5028544;28;19960;-77
2022/10/02 13:11:07;;;;;;;;;;;;;;;14.87;70.00;101395.25;5027460;28;19917;-77
2022/10/02 13:13:34;;;;;;;;;;;;;;;14.90;68.90;101390.81;5010034;28;19921;-78
2022/10/02 13:16:09;;;;;;;;;;;;;;;14.89;69.33;101389.13;5013047;28;19928;-78
2022/10/02 13:18:42;;;;;;;;;;;;;;;14.74;68.27;101388.66;5032496;28;19930;-77
2022/10/02 13:21:07;;;;;;;;;;;;;;;14.81;68.02;101392.81;5038500;28;20378;-77